Aérodrome :
LOGIN :

S'inscrire | Disclaimer

   EN    FR    IT 

 










Légende :    VFR   VFR Marginal   IFR   IFR Intensif   IFR Très Intensif
Visi : 
Plafond : 
>= 8 km
>= 3000ft
5 à 8 km
1000 à 3000 ft
1500m à 5 km
500 à 1000 ft
800 à 1500m
200 à 500 ft
< 800m
< 200 ft
Symboles :   Orages  Brouillard  Fortes neiges  Fortes précipitations  Vent > 20 kt
SIGMETs :   Divers  Orages  Givrage  Turbulence  Onde Orograph.  Cendres Volcan.






- Altitude de l'aérodrome : 1106 ft


LFSO - Nancy / Ochey

DERNIER METAR :
  • 160800Z AUTO 08011KT 020V110 9999 BKN028 BKN036 BKN043 04/M02 Q1024 NOSIG

METARs EXPIRÉS :
  • 160730Z AUTO 07011KT 040V100 9999 SCT025 BKN034 BKN042 04/M02 Q1024 NOSIG
  • 160700Z AUTO 03009KT 350V090 9999 FEW024 04/M02 Q1024 NOSIG
  • 160630Z AUTO 02006KT CAVOK 03/M02 Q1024 NOSIG
  • 160600Z AUTO 01006KT CAVOK 02/M03 Q1024 NOSIG
  • 160530Z AUTO 01006KT CAVOK 01/M03 Q1024 NOSIG

TAF TAF LFSO
Valide du 16 à 04h jusqu'au 17 à 03h UTC


160450Z 1604/1703 03008KT CAVOK



MET'MAP, la Météo Aéronautique d'un coup d'oeil ! - Copyright ORBIFLY Décembre 2007 - Disclaimer

ORBIFLY MET'MAP TEAM :

Programmation & Développement : Alexandra Zaïnal
Sur une idée originale de : Baudouin d'Aumeries
Assistance à la programmation : Marc-Olivier Méhu
Soutien technique & logistique : Manuel Goepfert

Contact : metmap@orbifly.com




SOURCES & CREDITS :

   NOAA